Weather reports worldwide

Advertisment
Lampedusa, Italy (16490): temperature & dewpoint: 15.09.2018 01:00:00 - 21.09.2018 01:00:00 (CEST)Lampedusa, Italy (16490): wind speed: 15.09.2018 01:00:00 - 21.09.2018 01:00:00 (CEST)Lampedusa, Italy (16490): wind direction: 15.09.2018 01:00:00 - 21.09.2018 01:00:00 (CEST)Lampedusa, Italy (16490): visibility: 15.09.2018 01:00:00 - 21.09.2018 01:00:00 (CEST)
Date & Time tt [°C] td [°C] ff [km/h] ff [kn] dd vv [km]
21.09.2018 01:00:00 - - - - - -
21.09.2018 00:00:00 - - - - - -
20.09.2018 23:00:00 - - - - - -
20.09.2018 22:00:00 26,0 20,0 4 2 E 10
20.09.2018 21:00:00 26,0 20,0 2 1 - 10
20.09.2018 20:00:00 26,0 20,0 5 3 ESE 10
20.09.2018 19:00:00 26,0 20,0 4 2 - 10
20.09.2018 18:00:00 27,0 20,0 8 4 SE 10
20.09.2018 17:00:00 27,0 23,0 8 4 S 10
20.09.2018 16:00:00 27,0 21,0 5 3 S 10
20.09.2018 15:00:00 26,0 20,0 15 8 S 10
20.09.2018 14:00:00 26,0 21,0 5 3 NNE 10
20.09.2018 13:00:00 26,0 21,0 9 5 NNE 10
20.09.2018 12:00:00 28,0 21,0 13 7 SE 10
20.09.2018 11:00:00 27,0 21,0 9 5 SSE 10
20.09.2018 10:00:00 27,0 21,0 8 4 SE 10
20.09.2018 09:00:00 27,0 20,0 5 3 S 10
20.09.2018 08:00:00 25,0 20,0 2 1 - 10
20.09.2018 07:00:00 25,0 20,0 5 3 SE 10
20.09.2018 06:00:00 25,0 20,0 4 2 E 10
20.09.2018 05:00:00 - - - - - -
20.09.2018 04:00:00 - - - - - -
20.09.2018 03:00:00 - - - - - -
20.09.2018 02:00:00 - - - - - -
20.09.2018 01:00:00 - - - - - -
20.09.2018 00:00:00 24,0 20,0 37 20 NNW 10
19.09.2018 23:00:00 27,0 22,0 4 2 - 10
19.09.2018 22:00:00 27,0 23,0 13 7 SSE 10
19.09.2018 21:00:00 27,0 22,0 9 5 SE 10
19.09.2018 20:00:00 27,0 22,0 5 3 S 10
19.09.2018 19:00:00 27,0 22,0 11 6 SSE 10
19.09.2018 18:00:00 28,0 22,0 9 5 S 10
19.09.2018 17:00:00 29,0 22,0 13 7 S 10
19.09.2018 16:00:00 29,0 21,0 11 6 S 10
19.09.2018 15:00:00 29,0 22,0 13 7 SSW 10
19.09.2018 14:00:00 29,0 22,0 16 9 SSW 10
19.09.2018 13:00:00 29,0 22,0 16 9 SSW 10
19.09.2018 12:00:00 29,0 22,0 16 9 SSW 10
19.09.2018 11:00:00 29,0 22,0 15 8 S 10
19.09.2018 10:00:00 28,0 22,0 9 5 S 10
19.09.2018 09:00:00 27,0 22,0 9 5 SSE 10
19.09.2018 08:00:00 27,0 22,0 13 7 S 10
19.09.2018 07:00:00 26,0 22,0 11 6 SSE 10
19.09.2018 06:00:00 26,0 20,0 11 6 SSE 10
19.09.2018 05:00:00 - - - - - -
19.09.2018 04:00:00 - - - - - -
19.09.2018 03:00:00 - - - - - -
19.09.2018 02:00:00 - - - - - -
19.09.2018 01:00:00 - - - - - -
19.09.2018 00:00:00 - - - - - -
18.09.2018 23:00:00 - - - - - -
18.09.2018 22:00:00 27,0 22,0 8 4 SE 10
18.09.2018 21:00:00 27,0 21,0 5 3 SSE 10
18.09.2018 20:00:00 27,0 22,0 9 5 SW 10
18.09.2018 19:00:00 27,0 22,0 9 5 S 10
18.09.2018 18:00:00 28,0 22,0 9 5 S 10
18.09.2018 17:00:00 28,0 22,0 13 7 SSW 10
18.09.2018 16:00:00 29,0 22,0 13 7 SSW 10
18.09.2018 15:00:00 30,0 22,0 15 8 SSW 10
18.09.2018 14:00:00 29,0 22,0 11 6 S 10
18.09.2018 13:00:00 29,0 22,0 13 7 SSE 10
18.09.2018 12:00:00 29,0 22,0 13 7 SSE 10
18.09.2018 11:00:00 28,0 22,0 13 7 SSE 10
18.09.2018 10:00:00 28,0 22,0 9 5 S 10
18.09.2018 09:00:00 27,0 22,0 8 4 S 10
18.09.2018 08:00:00 27,0 22,0 9 5 S 10
18.09.2018 07:00:00 26,0 22,0 11 6 S 10
18.09.2018 06:00:00 26,0 22,0 9 5 S 10
18.09.2018 05:00:00 - - - - - -
18.09.2018 04:00:00 - - - - - -
18.09.2018 03:00:00 - - - - - -
18.09.2018 02:00:00 - - - - - -
18.09.2018 01:00:00 - - - - - -
18.09.2018 00:00:00 - - - - - -
17.09.2018 23:00:00 - - - - - -
17.09.2018 22:00:00 27,0 22,0 13 7 SSE 10
17.09.2018 21:00:00 27,0 22,0 9 5 S 10
17.09.2018 20:00:00 27,0 22,0 11 6 S 10
17.09.2018 19:00:00 27,0 22,0 9 5 S 10
17.09.2018 18:00:00 28,0 23,0 11 6 SSW 10
17.09.2018 17:00:00 28,0 23,0 11 6 SSW 10
17.09.2018 16:00:00 29,0 23,0 15 8 SSW 10
17.09.2018 15:00:00 29,0 22,0 15 8 SSW 10
17.09.2018 14:00:00 29,0 22,0 13 7 SSW 10
17.09.2018 13:00:00 29,0 22,0 11 6 SW 10
17.09.2018 12:00:00 29,0 21,0 13 7 SW 10
17.09.2018 11:00:00 28,0 22,0 11 6 SW 10
17.09.2018 10:00:00 28,0 22,0 9 5 SSW 10
17.09.2018 09:00:00 27,0 21,0 11 6 SSW 10
17.09.2018 08:00:00 26,0 21,0 13 7 SSW 10
17.09.2018 07:00:00 26,0 21,0 15 8 S 10
17.09.2018 06:00:00 26,0 21,0 9 5 SSE 10
17.09.2018 05:00:00 - - - - - -
17.09.2018 04:00:00 - - - - - -
17.09.2018 03:00:00 - - - - - -
17.09.2018 02:00:00 - - - - - -
17.09.2018 01:00:00 - - - - - -
17.09.2018 00:00:00 - - - - - -
16.09.2018 23:00:00 26,0 22,0 8 4 SSW 10
16.09.2018 22:00:00 26,0 21,0 9 5 S 10
16.09.2018 21:00:00 27,0 21,0 4 2 S 10
16.09.2018 20:00:00 27,0 21,0 5 3 ESE 10
16.09.2018 19:00:00 27,0 22,0 5 3 SE 10
16.09.2018 18:00:00 28,0 21,0 8 4 SSE 10
16.09.2018 17:00:00 28,0 21,0 5 3 SSE 10
16.09.2018 16:00:00 28,0 22,0 9 5 SE 10
16.09.2018 15:00:00 28,0 22,0 8 4 ESE 10
16.09.2018 14:00:00 29,0 22,0 5 3 SSW 10
16.09.2018 13:00:00 29,0 22,0 8 4 SSE 10
16.09.2018 12:00:00 28,0 22,0 9 5 - 10
16.09.2018 11:00:00 27,0 22,0 8 4 ENE 10
16.09.2018 10:00:00 27,0 22,0 5 3 - 10
16.09.2018 09:00:00 27,0 22,0 5 3 ENE 10
16.09.2018 08:00:00 26,0 22,0 8 4 E 10
16.09.2018 07:00:00 25,0 22,0 8 4 E 10
16.09.2018 06:00:00 25,0 22,0 9 5 ENE 10
16.09.2018 05:00:00 - - - - - -
16.09.2018 04:00:00 - - - - - -
16.09.2018 03:00:00 - - - - - -
16.09.2018 02:00:00 - - - - - -
16.09.2018 01:00:00 - - - - - -
16.09.2018 00:00:00 - - - - - -
15.09.2018 23:00:00 - - - - - -
15.09.2018 22:00:00 26,0 22,0 15 8 NNE 10
15.09.2018 21:00:00 26,0 22,0 5 3 NNE 10
15.09.2018 20:00:00 26,0 22,0 13 7 NNE 10
15.09.2018 19:00:00 27,0 22,0 15 8 N 10
15.09.2018 18:00:00 27,0 22,0 18 10 NNE 10
15.09.2018 17:00:00 27,0 22,0 21 11 NNE 10
15.09.2018 16:00:00 27,0 22,0 16 9 NNE 10
15.09.2018 15:00:00 28,0 21,0 18 10 N 10
15.09.2018 14:00:00 27,0 22,0 21 11 N 10
15.09.2018 13:00:00 27,0 21,0 24 13 NNE 10
15.09.2018 12:00:00 27,0 22,0 15 8 N 10
15.09.2018 11:00:00 27,0 21,0 15 8 N 10
15.09.2018 10:00:00 26,0 22,0 18 10 N 10
15.09.2018 09:00:00 26,0 21,0 21 11 N 10
15.09.2018 08:00:00 25,0 20,0 21 11 N 10
15.09.2018 07:00:00 25,0 20,0 11 6 NNW 10
15.09.2018 06:00:00 25,0 20,0 13 7 NNW 10
15.09.2018 05:00:00 - - - - - -
15.09.2018 04:00:00 - - - - - -
15.09.2018 03:00:00 - - - - - -
15.09.2018 02:00:00 - - - - - -
15.09.2018 01:00:00 - - - - - -

tt = temperature
td = dewpoint
ff = wind speed
dd = wind direction
vv = visibility

Next stations